Time;durP1;ratioP1;P1;durP2;ratioP2;P2;SDS_P1;SDS_P2;PMS_P1;PMS_P2;Temp;Humidity;BMP_temperature;BMP_pressure;BME280_temperature;BME280_humidity;BME280_pressure;Samples;Min_cycle;Max_cycle;Signal;HPM_P1;HPM_P2
2023/09/13 00:02:15;;;;;;;11.10;6.97;;;;;;;23.64;65.35;99617.59;4944614;28;20043;-84
2023/09/13 00:04:42;;;;;;;9.65;6.85;;;;;;;23.62;65.32;99624.03;4921308;28;20070;-84
2023/09/13 00:07:10;;;;;;;10.93;7.22;;;;;;;23.61;65.63;99614.28;4935655;28;20136;-84
2023/09/13 00:09:41;;;;;;;11.57;7.72;;;;;;;23.64;65.34;99607.56;4945049;28;20130;-84
2023/09/13 00:12:08;;;;;;;10.05;7.40;;;;;;;23.63;65.15;99611.31;4931964;28;20047;-84
2023/09/13 00:14:35;;;;;;;12.32;8.45;;;;;;;23.62;65.35;99610.50;4969948;28;20062;-84
2023/09/13 00:17:02;;;;;;;8.85;6.85;;;;;;;23.62;65.17;99617.81;4927267;28;20049;-84
2023/09/13 00:19:30;;;;;;;9.23;6.90;;;;;;;23.58;65.38;99619.31;4926936;28;20053;-85
2023/09/13 00:21:57;;;;;;;10.00;6.97;;;;;;;23.55;65.30;99626.00;4925777;28;20491;-84
2023/09/13 00:24:24;;;;;;;9.20;6.80;;;;;;;23.54;65.16;99632.50;4945747;28;20499;-84
2023/09/13 00:26:51;;;;;;;7.65;6.55;;;;;;;23.55;64.92;99641.44;4919723;28;20043;-85
2023/09/13 00:29:18;;;;;;;9.50;6.38;;;;;;;23.54;64.88;99642.50;4926921;28;20102;-84
2023/09/13 00:31:44;;;;;;;10.70;6.63;;;;;;;23.54;64.76;99647.94;4919032;28;20074;-84
2023/09/13 00:34:12;;;;;;;9.05;6.32;;;;;;;23.54;65.03;99654.16;4918506;28;20115;-84
2023/09/13 00:36:40;;;;;;;9.13;6.25;;;;;;;23.58;64.51;99654.53;4914080;28;20043;-84
2023/09/13 00:39:07;;;;;;;10.52;6.35;;;;;;;23.57;64.66;99656.41;4944420;28;20039;-84
2023/09/13 00:41:33;;;;;;;9.23;5.95;;;;;;;23.59;64.64;99658.91;4952370;28;20061;-83
2023/09/13 00:44:00;;;;;;;7.75;5.70;;;;;;;23.58;64.75;99652.69;4955060;28;20059;-85
2023/09/13 00:46:27;;;;;;;8.13;6.22;;;;;;;23.61;64.41;99667.66;4951169;28;20063;-84
2023/09/13 00:48:55;;;;;;;9.65;5.65;;;;;;;23.61;64.47;99670.38;4929355;28;20126;-84
2023/09/13 00:51:22;;;;;;;7.25;5.43;;;;;;;23.60;64.36;99680.38;4951615;28;20555;-84
2023/09/13 00:53:49;;;;;;;6.80;5.55;;;;;;;23.60;64.36;99679.53;4942489;28;20122;-84
2023/09/13 00:56:16;;;;;;;6.82;5.45;;;;;;;23.62;64.57;99682.84;4943192;28;20603;-84
2023/09/13 00:58:44;;;;;;;5.70;5.03;;;;;;;23.61;64.36;99682.03;4930272;28;20130;-83
2023/09/13 01:01:12;;;;;;;7.78;5.28;;;;;;;23.60;64.75;99679.53;4954151;28;20126;-84
2023/09/13 01:03:40;;;;;;;5.72;5.10;;;;;;;23.58;64.71;99674.38;4901377;28;20455;-84
2023/09/13 01:06:09;;;;;;;6.10;5.32;;;;;;;23.57;64.83;99680.81;4961978;28;20073;-84
2023/09/13 01:08:41;;;;;;;6.28;5.00;;;;;;;23.58;65.01;99684.34;4946397;28;20068;-85
2023/09/13 01:11:08;;;;;;;6.88;5.30;;;;;;;23.57;65.13;99680.00;4915112;28;20072;-83
2023/09/13 01:13:35;;;;;;;5.80;4.93;;;;;;;23.57;64.94;99680.81;4929632;28;20122;-85
2023/09/13 01:16:33;;;;;;;8.50;5.07;;;;;;;23.51;65.16;99680.88;4929911;28;20074;-83
2023/09/13 01:19:15;;;;;;;7.32;5.20;;;;;;;23.54;64.84;99675.03;4957669;28;20050;-84
2023/09/13 01:22:19;;;;;;;11.32;5.20;;;;;;;23.44;65.50;99680.13;4960926;28;20051;-84
2023/09/13 01:25:15;;;;;;;5.93;4.82;;;;;;;23.51;65.40;99667.31;4955986;28;20047;-84
2023/09/13 01:28:24;;;;;;;5.97;4.60;;;;;;;23.41;65.97;99667.88;4908290;28;20122;-84
2023/09/13 01:30:51;;;;;;;5.20;4.57;;;;;;;23.52;65.25;99667.09;4930407;28;20046;-84
2023/09/13 01:33:19;;;;;;;7.38;4.75;;;;;;;23.47;65.45;99658.81;4956359;28;20111;-84
2023/09/13 01:35:46;;;;;;;4.97;4.47;;;;;;;23.47;66.01;99656.13;4945143;28;20125;-83
2023/09/13 01:38:13;;;;;;;6.30;4.80;;;;;;;23.49;66.19;99656.72;4944144;28;20071;-84
2023/09/13 01:40:41;;;;;;;7.25;4.18;;;;;;;23.47;66.33;99653.41;4910763;28;20134;-84
2023/09/13 01:43:08;;;;;;;5.53;4.18;;;;;;;23.46;66.14;99643.63;4927731;28;20058;-84
2023/09/13 01:45:35;;;;;;;8.43;4.35;;;;;;;23.46;66.54;99643.63;4927283;28;20043;-84
2023/09/13 01:48:03;;;;;;;5.82;4.38;;;;;;;23.45;66.56;99636.53;4926445;28;20059;-84
2023/09/13 01:50:31;;;;;;;7.93;4.78;;;;;;;23.45;66.53;99639.25;4916495;28;20055;-84
2023/09/13 01:53:01;;;;;;;7.65;4.65;;;;;;;23.42;66.51;99636.16;4927078;28;20403;-84
2023/09/13 01:55:28;;;;;;;6.75;4.75;;;;;;;23.37;66.67;99624.09;4944221;28;20106;-84
2023/09/13 01:57:55;;;;;;;5.18;4.50;;;;;;;23.36;66.67;99627.88;4930790;28;20047;-84
2023/09/13 02:00:22;;;;;;;4.95;4.35;;;;;;;23.36;66.69;99619.75;4947178;28;20046;-84
2023/09/13 02:02:49;;;;;;;5.55;4.72;;;;;;;23.33;66.93;99620.22;4953291;28;20046;-84
2023/09/13 02:05:16;;;;;;;4.90;4.35;;;;;;;23.32;66.89;99629.38;4966721;28;20074;-85
2023/09/13 02:07:42;;;;;;;7.35;4.53;;;;;;;23.31;66.82;99627.72;4945416;28;20491;-84
2023/09/13 02:10:09;;;;;;;8.07;5.15;;;;;;;23.28;67.18;99633.59;4929660;28;20445;-85
2023/09/13 02:12:36;;;;;;;6.65;4.95;;;;;;;23.29;66.84;99631.72;4942807;28;20220;-85
2023/09/13 02:15:04;;;;;;;4.50;4.10;;;;;;;23.31;67.05;99640.44;4929756;28;20458;-84
2023/09/13 02:17:32;;;;;;;6.32;4.43;;;;;;;23.27;67.06;99641.94;4928701;28;20455;-85
2023/09/13 02:19:59;;;;;;;5.10;4.50;;;;;;;23.25;67.03;99642.16;4948823;28;20129;-86
2023/09/13 02:22:25;;;;;;;5.97;4.65;;;;;;;23.25;67.04;99649.47;4924833;28;20058;-84
2023/09/13 02:24:52;;;;;;;6.53;4.78;;;;;;;23.26;66.62;99651.94;4928742;28;20086;-85
2023/09/13 02:27:19;;;;;;;7.30;4.97;;;;;;;23.26;66.72;99640.28;4932973;28;20042;-85
2023/09/13 02:29:46;;;;;;;5.25;4.13;;;;;;;23.19;66.89;99635.75;4948668;28;20087;-85
2023/09/13 02:32:13;;;;;;;6.45;4.80;;;;;;;23.19;66.86;99645.75;4952975;28;20474;-85
2023/09/13 02:34:44;;;;;;;5.53;4.93;;;;;;;23.19;66.21;99651.19;4965548;28;20122;-85
2023/09/13 02:37:11;;;;;;;6.53;4.38;;;;;;;23.19;66.54;99643.06;4932642;28;20502;-84
2023/09/13 02:39:41;;;;;;;6.95;4.50;;;;;;;23.17;66.53;99637.03;4933245;28;20049;-84
2023/09/13 02:42:09;;;;;;;5.10;4.20;;;;;;;23.16;66.65;99644.34;4954437;28;20109;-85
2023/09/13 02:44:36;;;;;;;4.78;3.97;;;;;;;23.13;66.57;99635.84;4912947;28;20058;-84
2023/09/13 02:47:03;;;;;;;6.40;4.80;;;;;;;23.13;67.03;99633.13;4944107;28;20544;-84
2023/09/13 02:49:32;;;;;;;5.55;4.43;;;;;;;23.09;66.75;99640.84;4927927;28;20039;-84
2023/09/13 02:51:59;;;;;;;5.32;4.40;;;;;;;23.08;66.97;99644.63;4925603;28;20051;-84
2023/09/13 02:54:26;;;;;;;6.68;4.35;;;;;;;23.05;66.99;99650.50;4954977;28;20039;-84
2023/09/13 02:56:53;;;;;;;8.60;4.50;;;;;;;23.03;66.98;99649.88;4952181;28;20050;-85
2023/09/13 02:59:20;;;;;;;6.93;4.63;;;;;;;23.04;67.21;99662.34;4944659;28;20043;-85
2023/09/13 03:01:48;;;;;;;7.85;4.53;;;;;;;22.97;67.09;99664.28;4925812;28;20443;-85
2023/09/13 03:04:16;;;;;;;6.20;4.55;;;;;;;22.95;67.01;99667.19;4915550;28;20051;-85
2023/09/13 03:06:43;;;;;;;7.20;4.60;;;;;;;22.97;67.10;99667.00;4954567;28;20490;-84
2023/09/13 03:09:10;;;;;;;5.50;4.43;;;;;;;22.93;67.27;99668.47;4913387;28;20106;-85
2023/09/13 03:11:37;;;;;;;7.97;4.65;;;;;;;22.93;67.51;99684.72;4929708;28;20049;-84
2023/09/13 03:14:05;;;;;;;5.45;3.85;;;;;;;22.89;67.66;99683.47;4956122;28;20038;-84
2023/09/13 03:16:33;;;;;;;7.32;4.20;;;;;;;22.88;67.56;99690.78;4917682;28;20062;-84
2023/09/13 03:19:01;;;;;;;5.53;4.50;;;;;;;22.88;67.38;99692.66;4930051;28;20054;-84
2023/09/13 03:21:34;;;;;;;7.55;5.00;;;;;;;22.82;67.38;99683.56;4938737;28;20671;-83
2023/09/13 03:24:01;;;;;;;7.55;4.78;;;;;;;22.82;67.59;99688.09;4897982;28;20066;-84
2023/09/13 03:26:28;;;;;;;8.43;4.68;;;;;;;22.80;67.68;99682.09;4920591;28;20047;-84
2023/09/13 03:28:55;;;;;;;11.27;6.72;;;;;;;22.80;67.40;99690.22;4938458;28;20099;-84
2023/09/13 03:31:24;;;;;;;6.90;4.72;;;;;;;22.77;67.44;99680.66;4915235;28;20053;-84
2023/09/13 03:33:55;;;;;;;7.65;4.95;;;;;;;22.79;67.69;99688.56;4921917;28;20130;-85
2023/09/13 03:36:25;;;;;;;6.68;4.95;;;;;;;22.72;67.72;99684.03;4913677;28;20082;-84
2023/09/13 03:38:54;;;;;;;6.80;4.85;;;;;;;22.72;67.34;99673.19;4942210;28;20054;-84
2023/09/13 03:41:24;;;;;;;6.15;4.70;;;;;;;22.71;67.74;99676.94;4926485;28;20059;-84
2023/09/13 03:43:51;;;;;;;5.32;4.28;;;;;;;22.67;67.60;99674.88;4936788;28;20546;-84
2023/09/13 03:46:19;;;;;;;6.88;5.22;;;;;;;22.65;67.60;99672.41;4937207;28;20070;-84
2023/09/13 03:48:50;;;;;;;6.53;4.75;;;;;;;22.60;67.79;99669.53;4903942;28;20051;-85
2023/09/13 03:51:17;;;;;;;5.78;4.53;;;;;;;22.62;67.81;99677.41;4941986;28;20053;-84
2023/09/13 03:53:45;;;;;;;4.85;4.35;;;;;;;22.62;67.75;99680.97;4959566;28;20058;-84
2023/09/13 03:56:12;;;;;;;6.22;5.20;;;;;;;22.60;67.63;99680.34;4894658;28;20042;-85
2023/09/13 03:58:39;;;;;;;7.55;4.90;;;;;;;22.57;68.05;99682.66;4951563;28;20160;-85
2023/09/13 04:01:06;;;;;;;8.20;5.10;;;;;;;22.53;67.74;99684.97;4924080;28;20051;-86
2023/09/13 04:03:33;;;;;;;7.05;4.63;;;;;;;22.51;67.60;99684.34;4943201;28;20502;-85
2023/09/13 04:06:03;;;;;;;8.45;5.30;;;;;;;22.50;67.60;99690.81;4903723;28;20715;-86
2023/09/13 04:08:30;;;;;;;7.90;5.00;;;;;;;22.52;67.80;99688.75;4888142;28;20130;-86
2023/09/13 04:10:57;;;;;;;9.88;4.80;;;;;;;22.52;67.63;99686.84;4940924;28;20066;-83
2023/09/13 04:13:24;;;;;;;8.57;4.90;;;;;;;22.52;67.61;99692.28;4900045;28;20139;-83
2023/09/13 04:15:53;;;;;;;6.32;4.93;;;;;;;22.48;67.51;99691.03;4923147;28;20062;-86
2023/09/13 04:18:20;;;;;;;7.18;4.72;;;;;;;22.44;67.42;99687.13;4942719;28;20047;-86
2023/09/13 04:20:53;;;;;;;10.35;4.68;;;;;;;22.46;67.48;99676.88;4936496;28;20044;-87
2023/09/13 04:23:28;;;;;;;5.45;4.60;;;;;;;22.49;67.69;99689.16;4946839;28;20078;-81
2023/09/13 04:25:56;;;;;;;9.90;4.85;;;;;;;22.50;67.83;99686.25;4941805;28;20062;-82
2023/09/13 04:28:23;;;;;;;6.57;4.95;;;;;;;22.47;67.68;99683.16;4930251;28;20058;-81
2023/09/13 04:30:51;;;;;;;7.05;4.72;;;;;;;22.42;67.88;99677.56;4956574;28;20118;-82
2023/09/13 04:33:51;;;;;;;7.65;4.78;;;;;;;22.35;68.32;99674.06;4956567;28;20807;-81
2023/09/13 04:36:21;;;;;;;5.30;4.40;;;;;;;22.39;68.17;99667.16;4926814;28;20051;-81
2023/09/13 04:38:48;;;;;;;8.52;4.43;;;;;;;22.39;68.01;99678.81;4927290;28;20047;-82
2023/09/13 04:41:17;;;;;;;7.43;4.80;;;;;;;22.40;67.99;99677.75;4928506;28;20055;-83
2023/09/13 04:43:44;;;;;;;4.93;4.28;;;;;;;22.42;68.36;99685.69;4933552;28;20047;-81
2023/09/13 04:46:12;;;;;;;7.53;4.65;;;;;;;22.42;68.08;99686.50;4905777;28;20043;-81
2023/09/13 04:48:40;;;;;;;6.85;4.93;;;;;;;22.45;68.16;99694.19;4942571;28;20151;-81
2023/09/13 04:51:08;;;;;;;8.50;5.28;;;;;;;22.49;68.25;99713.50;4944590;28;20411;-81
2023/09/13 04:53:37;;;;;;;9.05;5.10;;;;;;;22.49;68.44;99706.25;4933560;28;20141;-81
2023/09/13 04:56:04;;;;;;;7.32;5.30;;;;;;;22.51;68.26;99722.25;4945825;28;20050;-81
2023/09/13 04:58:37;;;;;;;8.77;4.63;;;;;;;22.51;68.18;99719.53;4925534;28;20047;-81
2023/09/13 05:01:05;;;;;;;5.75;4.53;;;;;;;22.53;68.15;99723.69;4968548;28;20130;-81
2023/09/13 05:03:34;;;;;;;5.55;4.40;;;;;;;22.53;68.22;99729.09;4938301;28;20047;-81
2023/09/13 05:06:01;;;;;;;5.65;4.68;;;;;;;22.53;68.27;99733.69;4926780;28;20051;-83
2023/09/13 05:08:31;;;;;;;5.60;4.97;;;;;;;22.52;68.33;99737.44;4940248;28;20043;-81
2023/09/13 05:10:57;;;;;;;6.45;4.93;;;;;;;22.53;68.19;99736.38;4927695;28;20054;-81
2023/09/13 05:13:24;;;;;;;8.88;4.93;;;;;;;22.51;68.01;99738.47;4971666;28;20415;-81
2023/09/13 05:15:51;;;;;;;6.32;4.95;;;;;;;22.51;68.30;99746.59;4945943;28;20051;-81
2023/09/13 05:18:18;;;;;;;6.30;4.63;;;;;;;22.53;68.50;99744.50;4934276;28;20050;-81
2023/09/13 05:20:45;;;;;;;5.70;4.50;;;;;;;22.54;68.34;99749.72;4943538;28;20074;-81
2023/09/13 05:23:11;;;;;;;6.28;4.47;;;;;;;22.54;68.43;99755.13;4921310;28;20117;-81
2023/09/13 05:25:45;;;;;;;9.77;4.72;;;;;;;22.51;69.17;99757.41;4955335;28;20071;-81
2023/09/13 05:28:13;;;;;;;7.22;4.57;;;;;;;22.54;68.96;99751.56;4928925;28;20051;-81
2023/09/13 05:30:42;;;;;;;6.32;4.55;;;;;;;22.56;69.09;99751.38;4950623;28;20464;-81
2023/09/13 05:33:08;;;;;;;5.63;4.47;;;;;;;22.58;69.01;99757.41;4952287;28;20043;-81
2023/09/13 05:35:35;;;;;;;5.22;4.50;;;;;;;22.56;69.10;99756.78;4949254;28;20047;-81
2023/09/13 05:38:02;;;;;;;5.45;4.90;;;;;;;22.59;69.01;99765.28;4942087;28;20450;-81
2023/09/13 05:40:29;;;;;;;5.65;5.00;;;;;;;22.59;69.21;99772.56;4951473;28;20055;-81
2023/09/13 05:42:57;;;;;;;5.40;4.70;;;;;;;22.61;69.36;99767.78;4955552;28;20058;-81
2023/09/13 05:45:24;;;;;;;6.88;4.65;;;;;;;22.60;69.47;99761.56;4928750;28;20054;-81
2023/09/13 05:47:51;;;;;;;5.80;4.47;;;;;;;22.66;69.20;99774.19;4961915;28;20047;-80
2023/09/13 05:50:18;;;;;;;6.25;4.80;;;;;;;22.66;69.00;99774.19;4911209;28;20150;-81
2023/09/13 05:52:45;;;;;;;8.07;4.65;;;;;;;22.70;69.33;99771.91;4934393;28;20046;-81
2023/09/13 05:55:11;;;;;;;7.50;4.60;;;;;;;22.74;69.29;99776.69;4945869;28;20053;-81
2023/09/13 05:57:38;;;;;;;6.38;4.70;;;;;;;22.75;68.87;99772.09;4959999;28;20101;-81
2023/09/13 06:00:07;;;;;;;5.50;4.95;;;;;;;22.75;68.63;99767.50;4926358;28;20096;-81
2023/09/13 06:02:37;;;;;;;6.78;4.60;;;;;;;22.78;68.34;99776.25;4931985;28;20047;-81
2023/09/13 06:05:05;;;;;;;6.07;5.07;;;;;;;22.78;68.56;99765.41;4956952;28;20138;-82
2023/09/13 06:07:34;;;;;;;5.85;4.50;;;;;;;22.76;68.38;99765.63;4947356;28;20174;-82
2023/09/13 06:10:01;;;;;;;7.22;4.72;;;;;;;22.79;68.34;99781.41;4911916;28;20046;-81
2023/09/13 06:12:28;;;;;;;6.53;4.88;;;;;;;22.79;68.33;99775.19;4931420;28;20063;-82
2023/09/13 06:14:57;;;;;;;5.53;4.40;;;;;;;22.75;68.37;99781.03;4938973;28;20062;-82
2023/09/13 06:17:23;;;;;;;4.95;4.10;;;;;;;22.76;68.59;99779.16;4947219;28;20063;-81
2023/09/13 06:19:51;;;;;;;8.82;4.80;;;;;;;22.78;68.50;99781.66;4947343;28;20054;-81
2023/09/13 06:22:17;;;;;;;5.60;4.68;;;;;;;22.76;68.25;99776.44;4948657;28;20050;-81
2023/09/13 06:24:44;;;;;;;5.25;4.30;;;;;;;22.76;68.40;99784.56;4957695;28;20130;-81
2023/09/13 06:27:11;;;;;;;6.07;4.80;;;;;;;22.76;68.07;99785.38;4958718;28;20093;-81
2023/09/13 06:29:38;;;;;;;7.57;4.90;;;;;;;22.80;68.56;99793.09;4929115;28;20051;-81
2023/09/13 06:32:06;;;;;;;6.22;5.00;;;;;;;22.79;67.86;99799.53;4969978;28;20047;-81
2023/09/13 06:34:33;;;;;;;6.28;4.90;;;;;;;22.79;68.04;99799.53;4948850;28;20050;-81
2023/09/13 06:37:00;;;;;;;5.85;4.93;;;;;;;22.80;68.04;99801.22;4942940;28;20499;-81
2023/09/13 06:39:28;;;;;;;4.90;4.40;;;;;;;22.82;67.73;99802.66;4912306;28;20039;-81
2023/09/13 06:41:55;;;;;;;8.18;4.60;;;;;;;22.84;67.82;99807.84;4941382;28;20586;-81
2023/09/13 06:44:22;;;;;;;6.22;5.05;;;;;;;22.83;67.97;99820.56;4931986;28;20070;-81
2023/09/13 06:47:09;;;;;;;4.93;4.43;;;;;;;22.83;68.10;99803.50;4958508;28;20394;-81
2023/09/13 06:49:37;;;;;;;5.18;4.68;;;;;;;22.83;68.04;99820.56;4970396;28;20064;-81
2023/09/13 06:52:06;;;;;;;6.53;5.55;;;;;;;22.85;67.98;99820.38;4952303;28;20042;-81
2023/09/13 06:54:35;;;;;;;6.35;4.82;;;;;;;22.85;68.09;99833.91;4930344;28;20051;-82
2023/09/13 06:57:08;;;;;;;5.30;4.80;;;;;;;22.84;67.94;99840.34;4928812;28;20105;-81
2023/09/13 06:59:39;;;;;;;5.28;4.63;;;;;;;22.83;68.00;99835.97;4952586;28;20054;-81
2023/09/13 07:02:18;;;;;;;5.05;3.78;;;;;;;22.82;68.00;99845.13;4931448;28;20546;-81
2023/09/13 07:04:48;;;;;;;5.68;4.70;;;;;;;22.80;67.85;99839.13;4931780;28;20399;-81
2023/09/13 07:07:34;;;;;;;7.10;3.90;;;;;;;22.82;68.07;99843.28;4955520;28;20051;-81
2023/09/13 07:10:03;;;;;;;7.38;4.07;;;;;;;22.83;68.09;99844.09;4970839;28;20051;-81
2023/09/13 07:12:29;;;;;;;5.47;4.00;;;;;;;22.84;68.13;99851.16;4955623;28;20047;-81
2023/09/13 07:14:56;;;;;;;5.25;4.57;;;;;;;22.82;67.89;99853.25;4926619;28;20410;-82
2023/09/13 07:17:23;;;;;;;5.93;4.38;;;;;;;22.83;67.96;99860.34;4931005;28;20043;-81
2023/09/13 07:19:50;;;;;;;4.95;4.05;;;;;;;22.82;68.01;99854.13;4945213;28;20054;-82
2023/09/13 07:22:16;;;;;;;5.10;4.43;;;;;;;22.84;68.25;99865.53;4942763;28;20059;-81
2023/09/13 07:24:43;;;;;;;5.13;4.30;;;;;;;22.82;67.92;99858.66;4944794;28;20047;-81
2023/09/13 07:27:10;;;;;;;6.90;4.03;;;;;;;22.82;67.97;99850.56;4951364;28;20829;-81
2023/09/13 07:29:37;;;;;;;7.85;4.47;;;;;;;22.82;68.03;99858.66;4930959;28;20047;-81
2023/09/13 07:32:04;;;;;;;5.28;4.05;;;;;;;22.84;68.09;99862.00;4970119;28;20134;-81
2023/09/13 07:34:31;;;;;;;6.15;4.50;;;;;;;22.82;68.00;99856.81;4946216;28;20134;-81
2023/09/13 07:36:58;;;;;;;5.97;4.78;;;;;;;22.83;67.77;99868.47;4930482;28;20047;-81
2023/09/13 07:39:25;;;;;;;4.72;4.32;;;;;;;22.82;67.87;99873.06;4945662;28;20410;-81
2023/09/13 07:41:52;;;;;;;5.40;4.30;;;;;;;22.83;67.92;99871.19;4940064;28;20047;-81
2023/09/13 07:44:19;;;;;;;5.63;4.53;;;;;;;22.80;68.16;99877.03;4942910;28;20372;-81
2023/09/13 07:46:46;;;;;;;7.60;4.72;;;;;;;22.83;68.04;99871.19;4926509;28;20846;-81
2023/09/13 07:49:13;;;;;;;5.78;4.22;;;;;;;22.83;68.11;99873.88;4938016;28;20138;-82
2023/09/13 07:51:40;;;;;;;7.15;4.50;;;;;;;22.83;68.19;99873.88;4943041;28;20042;-82
2023/09/13 07:54:07;;;;;;;4.78;4.25;;;;;;;22.87;68.13;99875.09;4955604;28;20078;-82
2023/09/13 07:56:37;;;;;;;7.35;4.68;;;;;;;22.88;68.04;99874.91;4956598;28;20047;-83
2023/09/13 07:59:07;;;;;;;5.88;4.75;;;;;;;22.90;68.17;99880.09;4945976;28;20069;-81
2023/09/13 08:01:34;;;;;;;5.03;4.53;;;;;;;22.92;68.14;99883.41;4926655;28;20082;-81
2023/09/13 08:04:01;;;;;;;6.07;4.82;;;;;;;22.93;68.00;99888.63;4942950;28;20098;-81
2023/09/13 08:06:27;;;;;;;7.93;5.10;;;;;;;23.00;68.20;99895.91;4952837;28;20051;-82
2023/09/13 08:08:56;;;;;;;6.35;4.70;;;;;;;23.00;68.14;99885.06;4948358;28;20085;-81
2023/09/13 08:11:26;;;;;;;5.47;4.95;;;;;;;23.01;68.11;99890.28;4936579;28;20049;-81
2023/09/13 08:13:53;;;;;;;5.85;4.57;;;;;;;23.04;67.80;99895.25;4931518;28;20066;-82
2023/09/13 08:16:20;;;;;;;9.43;5.55;;;;;;;23.05;67.65;99899.66;4928154;28;20046;-82
2023/09/13 08:18:46;;;;;;;6.32;4.80;;;;;;;23.04;67.79;99891.72;4958936;28;20042;-82
2023/09/13 08:21:13;;;;;;;7.25;5.20;;;;;;;23.05;67.73;99901.50;4936345;28;20051;-82
2023/09/13 08:23:40;;;;;;;7.40;4.90;;;;;;;23.04;67.89;99902.56;4952039;28;20126;-82
2023/09/13 08:26:07;;;;;;;5.18;4.40;;;;;;;23.05;67.72;99905.06;4952475;28;20118;-81
2023/09/13 08:28:52;;;;;;;7.38;4.95;;;;;;;23.04;67.67;99906.09;4952997;28;20051;-82
2023/09/13 08:31:19;;;;;;;6.70;5.22;;;;;;;23.06;67.62;99906.72;4941434;28;20047;-82
2023/09/13 08:33:46;;;;;;;6.68;5.25;;;;;;;23.05;67.58;99915.91;4930517;28;20101;-82
2023/09/13 08:36:13;;;;;;;6.32;5.43;;;;;;;23.04;67.62;99910.69;4954348;28;20384;-82
2023/09/13 08:38:40;;;;;;;6.15;5.43;;;;;;;23.01;67.69;99914.66;4944730;28;20648;-82
2023/09/13 08:41:07;;;;;;;5.90;4.93;;;;;;;23.01;67.74;99919.25;4948370;28;20069;-82
2023/09/13 08:43:36;;;;;;;6.15;5.05;;;;;;;22.95;67.29;99918.22;4945311;28;20055;-82
2023/09/13 08:46:03;;;;;;;6.43;5.03;;;;;;;22.93;67.90;99925.72;4943918;28;20058;-82
2023/09/13 08:48:31;;;;;;;6.28;4.90;;;;;;;22.96;68.31;99925.28;4944048;28;20054;-82
2023/09/13 08:50:59;;;;;;;8.73;4.80;;;;;;;22.98;68.17;99930.53;4926351;28;20049;-82
2023/09/13 08:53:26;;;;;;;5.45;4.90;;;;;;;23.00;68.32;99925.69;4943321;28;20515;-82
2023/09/13 08:55:55;;;;;;;8.00;5.30;;;;;;;22.97;67.98;99921.53;4931375;28;20051;-82
2023/09/13 08:58:23;;;;;;;5.65;5.05;;;;;;;22.99;68.01;99924.88;4942994;28;20424;-82
2023/09/13 09:00:52;;;;;;;6.68;4.78;;;;;;;23.01;67.86;99930.91;4937198;28;20046;-82
2023/09/13 09:03:21;;;;;;;5.65;5.05;;;;;;;23.00;67.91;99925.69;4956401;28;20075;-82
2023/09/13 09:05:49;;;;;;;6.15;5.13;;;;;;;23.01;68.06;99920.06;4943190;28;20053;-82
2023/09/13 09:08:16;;;;;;;5.82;5.25;;;;;;;23.02;68.04;99920.91;4926657;28;20039;-82
2023/09/13 09:10:43;;;;;;;8.27;5.18;;;;;;;23.05;67.65;99924.03;4949235;28;20043;-82
2023/09/13 09:13:10;;;;;;;6.72;5.30;;;;;;;23.08;67.51;99933.59;4918262;28;21711;-83
2023/09/13 09:15:38;;;;;;;7.80;5.60;;;;;;;23.09;67.28;99933.38;4932993;28;20057;-82
2023/09/13 09:18:09;;;;;;;9.35;5.05;;;;;;;23.09;67.51;99932.53;4937896;28;20043;-81
2023/09/13 09:20:38;;;;;;;8.90;5.18;;;;;;;23.12;67.50;99926.69;4948486;28;20039;-81
2023/09/13 09:23:06;;;;;;;7.63;5.90;;;;;;;23.17;67.58;99935.00;4945059;28;20753;-82
2023/09/13 09:25:33;;;;;;;6.20;5.15;;;;;;;23.18;67.27;99929.38;4945578;28;20066;-82
2023/09/13 09:28:02;;;;;;;6.10;5.28;;;;;;;23.22;67.36;99940.59;4938605;28;20407;-82
2023/09/13 09:30:31;;;;;;;6.32;5.32;;;;;;;23.24;67.48;99940.41;4954194;28;20047;-81
2023/09/13 09:33:05;;;;;;;7.18;6.00;;;;;;;23.22;67.08;99942.47;4954219;28;20058;-81
2023/09/13 09:35:33;;;;;;;7.75;5.60;;;;;;;23.26;67.14;99938.31;4938459;28;20039;-82
2023/09/13 09:38:00;;;;;;;7.82;5.50;;;;;;;23.24;67.18;99932.28;4950038;28;20102;-82
2023/09/13 09:40:27;;;;;;;7.50;5.90;;;;;;;23.29;66.78;99946.00;4947340;28;20196;-82
2023/09/13 09:42:57;;;;;;;6.13;4.88;;;;;;;23.25;66.64;99952.88;4931007;28;20043;-82
2023/09/13 09:45:24;;;;;;;5.97;4.82;;;;;;;23.26;66.84;99952.69;4940974;28;20047;-82
2023/09/13 09:47:51;;;;;;;7.07;5.20;;;;;;;23.26;66.85;99947.25;4933468;28;20191;-82
2023/09/13 09:50:18;;;;;;;7.10;5.70;;;;;;;23.28;67.01;99952.44;4931865;28;20406;-81
2023/09/13 09:52:50;;;;;;;7.75;4.95;;;;;;;23.25;66.55;99947.47;4926526;28;20050;-82
2023/09/13 09:55:21;;;;;;;5.97;5.05;;;;;;;23.27;66.48;99951.63;4928780;28;20054;-81
2023/09/13 09:57:49;;;;;;;7.07;5.68;;;;;;;23.30;66.53;99956.59;4968092;28;20054;-82
2023/09/13 10:00:18;;;;;;;7.95;5.43;;;;;;;23.32;66.60;99954.50;4942468;28;20058;-81
2023/09/13 10:02:45;;;;;;;6.13;5.15;;;;;;;23.36;66.47;99958.47;4959714;28;20055;-82
2023/09/13 10:05:17;;;;;;;7.00;5.13;;;;;;;23.40;66.66;99958.84;4940943;28;20042;-82
2023/09/13 10:07:54;;;;;;;5.88;5.28;;;;;;;23.42;66.58;99955.94;4957278;28;20043;-81
2023/09/13 10:10:33;;;;;;;8.02;5.10;;;;;;;23.42;65.87;99961.34;4955272;28;20055;-82
2023/09/13 10:13:00;;;;;;;6.43;4.93;;;;;;;23.46;65.93;99967.97;4940596;28;21010;-82
2023/09/13 10:15:27;;;;;;;6.47;4.97;;;;;;;23.47;66.13;99965.06;4940062;28;20118;-81
2023/09/13 10:17:55;;;;;;;8.13;5.30;;;;;;;23.49;65.88;99967.56;4947843;28;20511;-82
2023/09/13 10:20:23;;;;;;;5.75;5.18;;;;;;;23.48;66.19;99966.72;4945424;28;20055;-82
2023/09/13 10:22:54;;;;;;;7.80;5.25;;;;;;;23.47;65.88;99972.38;4930217;28;20075;-81
2023/09/13 10:25:22;;;;;;;6.38;5.65;;;;;;;23.46;65.77;99970.69;4969096;28;20671;-81
2023/09/13 10:27:50;;;;;;;6.95;5.40;;;;;;;23.44;65.38;99970.94;4945944;28;20058;-81
2023/09/13 10:30:23;;;;;;;5.53;4.97;;;;;;;23.42;65.75;99969.47;4934547;28;20050;-82
2023/09/13 10:32:57;;;;;;;5.93;5.28;;;;;;;23.38;65.28;99963.66;4943941;28;20039;-82
2023/09/13 10:35:28;;;;;;;6.13;4.93;;;;;;;23.40;65.80;99959.66;4940880;28;20059;-82
2023/09/13 10:38:25;;;;;;;7.50;5.03;;;;;;;23.40;65.97;99966.97;4943553;28;20071;-82
2023/09/13 10:40:59;;;;;;;6.50;5.32;;;;;;;23.39;66.34;99962.63;4946800;28;20047;-82
2023/09/13 10:43:27;;;;;;;5.82;5.22;;;;;;;23.45;66.05;99960.91;4909311;28;20495;-81
2023/09/13 10:45:54;;;;;;;6.47;5.57;;;;;;;23.47;66.24;99959.66;4943269;28;20047;-82
2023/09/13 10:48:21;;;;;;;6.15;5.60;;;;;;;23.51;65.88;99962.75;4959654;28;20035;-82
2023/09/13 10:50:49;;;;;;;5.88;4.90;;;;;;;23.52;65.52;99957.13;4938259;28;20520;-83
2023/09/13 10:53:16;;;;;;;6.63;5.05;;;;;;;23.56;65.53;99947.50;4938545;28;20099;-82
2023/09/13 10:55:44;;;;;;;7.63;5.13;;;;;;;23.62;65.94;99951.22;4944988;28;20043;-81
2023/09/13 10:58:18;;;;;;;8.15;5.38;;;;;;;23.67;65.04;99947.88;4947216;28;20520;-82
2023/09/13 11:00:47;;;;;;;5.93;4.45;;;;;;;23.70;65.14;99944.72;4958771;28;20056;-82
2023/09/13 11:03:13;;;;;;;6.38;5.30;;;;;;;23.71;65.04;99944.50;4967396;28;20964;-82
2023/09/13 11:05:41;;;;;;;7.32;5.18;;;;;;;23.70;64.34;99942.00;4957093;28;21167;-82
2023/09/13 11:08:11;;;;;;;7.70;5.47;;;;;;;23.68;63.80;99949.50;4913101;28;20481;-82
2023/09/13 11:10:38;;;;;;;8.95;4.90;;;;;;;23.63;63.33;99936.59;4946592;28;20127;-81
2023/09/13 11:13:12;;;;;;;5.70;4.43;;;;;;;23.60;63.23;99940.59;4955659;28;20050;-82
2023/09/13 11:15:50;;;;;;;5.22;4.72;;;;;;;23.57;62.72;99948.34;4966276;28;20405;-82
2023/09/13 11:18:17;;;;;;;7.97;5.20;;;;;;;23.59;63.39;99947.06;4926455;28;20086;-81
2023/09/13 11:20:44;;;;;;;7.03;5.10;;;;;;;23.58;63.39;99953.56;4967507;28;20144;-81
2023/09/13 11:23:18;;;;;;;6.05;4.97;;;;;;;23.52;63.45;99948.97;4956410;28;20062;-81
2023/09/13 11:26:04;;;;;;;5.75;4.53;;;;;;;23.55;63.80;99947.72;4942208;28;20047;-82
2023/09/13 11:28:36;;;;;;;6.47;4.30;;;;;;;23.52;63.61;99948.16;4944883;28;20420;-82
2023/09/13 11:31:05;;;;;;;7.10;4.75;;;;;;;23.55;63.96;99951.25;4955929;28;20045;-82
2023/09/13 11:33:38;;;;;;;4.68;4.20;;;;;;;23.54;64.37;99943.34;4941865;28;20039;-81
2023/09/13 11:36:05;;;;;;;6.25;5.65;;;;;;;23.58;64.42;99945.41;4966290;28;20161;-81
2023/09/13 11:38:33;;;;;;;5.65;5.13;;;;;;;23.58;64.61;99956.25;4969756;28;20102;-82
2023/09/13 11:41:01;;;;;;;6.43;5.10;;;;;;;23.56;64.38;99957.50;4930167;28;20054;-82
2023/09/13 11:43:31;;;;;;;5.35;4.80;;;;;;;23.56;63.90;99960.22;4940683;28;20517;-81